Time;durP1;ratioP1;P1;durP2;ratioP2;P2;SDS_P1;SDS_P2;PMS_P1;PMS_P2;Temp;Humidity;BMP_temperature;BMP_pressure;BME280_temperature;BME280_humidity;BME280_pressure;Samples;Min_cycle;Max_cycle;Signal;HPM_P1;HPM_P2
2022/05/08 00:01:15;;;;;;;13.60;12.40;;;;;;;12.66;100.00;97000.56;5043056;28;20624;-53
2022/05/08 00:03:41;;;;;;;13.83;12.63;;;;;;;12.64;100.00;97002.53;5042838;28;20215;-53
2022/05/08 00:06:10;;;;;;;14.50;13.20;;;;;;;12.64;100.00;96997.22;5041100;28;20254;-53
2022/05/08 00:08:37;;;;;;;14.27;12.80;;;;;;;12.65;100.00;96998.88;5043787;28;20581;-54
2022/05/08 00:11:04;;;;;;;14.17;13.07;;;;;;;12.67;100.00;97001.41;5042767;28;21366;-53
2022/05/08 00:13:31;;;;;;;14.73;13.53;;;;;;;12.64;100.00;96996.41;5042871;28;20203;-54
2022/05/08 00:15:59;;;;;;;14.53;13.33;;;;;;;12.67;100.00;96996.09;5043138;28;20294;-54
2022/05/08 00:18:27;;;;;;;15.67;14.27;;;;;;;12.64;100.00;96997.22;5042338;28;20210;-52
2022/05/08 00:20:54;;;;;;;15.83;14.53;;;;;;;12.68;100.00;96997.78;5042968;28;20196;-54
2022/05/08 00:23:22;;;;;;;15.60;14.30;;;;;;;12.72;100.00;96992.00;5042879;28;20211;-53
2022/05/08 00:25:53;;;;;;;14.60;13.30;;;;;;;12.81;100.00;96993.78;5042679;28;20207;-55
2022/05/08 00:28:20;;;;;;;14.20;13.03;;;;;;;12.80;100.00;96997.41;5042994;28;20269;-54
2022/05/08 00:30:50;;;;;;;14.87;13.57;;;;;;;12.79;100.00;96990.44;5052611;28;20214;-54
2022/05/08 00:33:18;;;;;;;15.07;13.77;;;;;;;12.77;100.00;96992.41;5067269;28;20192;-53
2022/05/08 00:35:48;;;;;;;15.03;13.73;;;;;;;12.83;100.00;96985.66;5069805;28;20184;-53
2022/05/08 00:38:14;;;;;;;15.40;14.10;;;;;;;12.86;100.00;96988.00;5057119;28;20278;-53
2022/05/08 00:40:41;;;;;;;15.80;14.30;;;;;;;12.88;100.00;96994.88;5046291;28;20199;-54
2022/05/08 00:43:32;;;;;;;14.93;13.73;;;;;;;12.89;100.00;96985.91;5043235;28;20211;-53
2022/05/08 00:46:04;;;;;;;13.13;12.03;;;;;;;12.88;100.00;96989.56;5042115;28;20680;-53
2022/05/08 00:48:31;;;;;;;13.87;12.70;;;;;;;12.84;100.00;96990.00;5043105;28;20214;-54
2022/05/08 00:50:59;;;;;;;13.93;12.67;;;;;;;12.82;100.00;96990.13;5032964;28;20235;-53
2022/05/08 00:53:28;;;;;;;14.17;12.87;;;;;;;12.79;100.00;96990.44;5043101;28;20551;-53
2022/05/08 00:55:56;;;;;;;14.00;12.70;;;;;;;12.79;100.00;96985.13;5041793;28;20234;-54
2022/05/08 00:58:25;;;;;;;14.23;13.03;;;;;;;12.81;100.00;96991.13;5043309;28;20230;-52
2022/05/08 01:00:51;;;;;;;14.03;12.87;;;;;;;12.81;100.00;96988.47;5041843;28;20646;-53
2022/05/08 01:03:20;;;;;;;14.13;12.93;;;;;;;12.85;100.00;96984.56;5033965;28;20290;-53
2022/05/08 01:05:46;;;;;;;14.10;12.87;;;;;;;12.88;100.00;96986.91;5044500;28;20246;-53
2022/05/08 01:08:15;;;;;;;14.30;13.10;;;;;;;12.92;100.00;96985.63;5047430;28;20534;-54
2022/05/08 01:10:42;;;;;;;15.40;13.17;;;;;;;12.89;100.00;96985.91;5040191;28;20295;-54
2022/05/08 01:13:09;;;;;;;13.57;12.27;;;;;;;12.88;100.00;96986.91;5049746;28;20235;-54
2022/05/08 01:15:43;;;;;;;13.10;12.00;;;;;;;12.84;100.00;96988.19;5044543;28;20208;-52
2022/05/08 01:18:11;;;;;;;14.00;12.80;;;;;;;12.82;100.00;96984.81;5042036;28;20226;-52
2022/05/08 01:20:38;;;;;;;15.40;13.80;;;;;;;12.81;100.00;96993.78;5042054;28;20207;-53
2022/05/08 01:23:08;;;;;;;14.77;13.50;;;;;;;12.73;100.00;96987.53;5041766;28;20203;-52
2022/05/08 01:25:35;;;;;;;14.83;13.60;;;;;;;12.72;100.00;96985.84;5041670;28;20210;-54
2022/05/08 01:28:04;;;;;;;14.70;13.60;;;;;;;12.69;100.00;96988.81;5041585;28;20211;-52
2022/05/08 01:30:31;;;;;;;14.53;13.33;;;;;;;12.67;100.00;96990.78;5041699;28;20218;-53
2022/05/08 01:33:01;;;;;;;14.93;13.70;;;;;;;12.63;100.00;96990.25;5041152;28;20203;-53
2022/05/08 01:35:28;;;;;;;15.57;14.17;;;;;;;12.59;100.00;96991.53;5042232;28;20286;-53
2022/05/08 01:37:56;;;;;;;14.63;13.33;;;;;;;12.56;100.00;96989.16;5042119;28;20235;-53
2022/05/08 01:40:25;;;;;;;15.03;13.73;;;;;;;12.55;100.00;96989.31;5041495;28;20235;-53
2022/05/08 01:42:52;;;;;;;14.70;13.40;;;;;;;12.49;100.00;96982.78;5041115;28;20218;-53
2022/05/08 01:45:19;;;;;;;14.50;13.40;;;;;;;12.46;100.00;96988.38;5041868;28;20655;-52
2022/05/08 01:50:31;;;;;;;14.30;13.10;;;;;;;12.45;100.00;96984.88;5041660;28;20221;-53
2022/05/08 01:53:01;;;;;;;14.70;13.40;;;;;;;12.47;100.00;96990.03;5041412;28;20213;-53
2022/05/08 01:55:31;;;;;;;14.83;13.63;;;;;;;12.42;100.00;96987.84;5042142;28;20257;-52
2022/05/08 01:57:59;;;;;;;14.37;13.27;;;;;;;12.44;100.00;96992.97;5041965;28;20208;-53
2022/05/08 02:00:26;;;;;;;14.93;13.53;;;;;;;12.44;100.00;96990.31;5041687;28;20222;-53
2022/05/08 02:02:54;;;;;;;14.03;12.93;;;;;;;12.41;100.00;96985.31;5041553;28;20717;-53
2022/05/08 02:05:24;;;;;;;14.90;13.63;;;;;;;12.35;100.00;96988.56;5041293;28;20208;-52
2022/05/08 02:07:53;;;;;;;14.77;13.47;;;;;;;12.38;100.00;96997.06;5043506;28;20249;-53
2022/05/08 02:10:20;;;;;;;14.33;13.27;;;;;;;12.35;100.00;96994.69;5042143;28;20314;-52
2022/05/08 02:12:48;;;;;;;14.73;13.53;;;;;;;12.38;100.00;96998.88;5032756;28;20250;-53
2022/05/08 02:15:15;;;;;;;13.40;12.33;;;;;;;12.36;100.00;96991.03;5040997;28;20208;-53
2022/05/08 02:17:44;;;;;;;15.10;13.90;;;;;;;12.34;100.00;96984.22;5041054;28;20620;-51
2022/05/08 02:20:12;;;;;;;13.70;12.57;;;;;;;12.36;100.00;96983.09;5030734;28;20659;-53
2022/05/08 02:22:39;;;;;;;14.43;13.17;;;;;;;12.35;100.00;96986.75;5041193;28;20261;-53
2022/05/08 02:25:07;;;;;;;14.63;13.43;;;;;;;12.34;100.00;96992.19;5041155;28;20210;-51
2022/05/08 02:27:38;;;;;;;16.13;14.63;;;;;;;12.32;100.00;96987.03;5041213;28;20643;-52
2022/05/08 02:30:11;;;;;;;14.50;13.30;;;;;;;12.37;100.00;96984.78;5043995;28;20195;-53
2022/05/08 02:32:38;;;;;;;14.60;13.40;;;;;;;12.37;100.00;96983.94;5045915;28;20218;-53
2022/05/08 02:35:06;;;;;;;14.37;13.27;;;;;;;12.38;100.00;96988.25;5045227;28;20222;-54
2022/05/08 02:37:33;;;;;;;14.20;13.10;;;;;;;12.40;100.00;96980.97;5044834;28;20203;-52
2022/05/08 02:40:03;;;;;;;14.43;13.23;;;;;;;12.41;100.00;96982.66;5044022;28;20202;-53
2022/05/08 02:42:30;;;;;;;14.30;12.90;;;;;;;12.44;100.00;96982.38;5044669;28;20283;-53
2022/05/08 02:44:57;;;;;;;14.70;13.57;;;;;;;12.46;100.00;96983.91;5045562;28;20252;-53
2022/05/08 02:47:25;;;;;;;13.90;12.60;;;;;;;12.47;100.00;96984.72;5044944;28;20210;-53
2022/05/08 02:49:52;;;;;;;13.73;12.53;;;;;;;12.47;100.00;96984.72;5045314;28;20211;-54
2022/05/08 02:52:21;;;;;;;13.30;12.23;;;;;;;12.46;100.00;96983.06;5044556;28;20536;-53
2022/05/08 02:54:47;;;;;;;12.93;11.83;;;;;;;12.48;100.00;96981.09;5044857;28;20199;-53
2022/05/08 03:00:02;;;;;;;13.00;11.83;;;;;;;12.43;100.00;96986.03;5071818;28;20647;-52
2022/05/08 03:02:33;;;;;;;12.67;11.67;;;;;;;12.43;100.00;96983.38;5071758;28;20461;-53
2022/05/08 03:04:59;;;;;;;13.20;12.10;;;;;;;12.38;100.00;96985.59;5053804;28;20282;-54
2022/05/08 03:07:26;;;;;;;13.37;12.27;;;;;;;12.35;100.00;96985.91;5044238;28;20258;-53
2022/05/08 03:09:54;;;;;;;13.63;12.33;;;;;;;12.42;100.00;96981.69;5044864;28;20222;-54
2022/05/08 03:12:20;;;;;;;12.90;11.80;;;;;;;12.37;100.00;96979.47;5044620;28;20234;-55
2022/05/08 03:14:47;;;;;;;12.27;11.20;;;;;;;12.40;100.00;96983.63;5044761;28;20210;-54
2022/05/08 03:17:15;;;;;;;12.53;11.47;;;;;;;12.38;100.00;96980.31;5044651;28;20214;-52
2022/05/08 03:19:44;;;;;;;13.00;11.93;;;;;;;12.37;100.00;96975.97;5044319;28;20654;-52
2022/05/08 03:22:10;;;;;;;12.83;11.73;;;;;;;12.39;100.00;96977.53;5044715;28;20195;-53
2022/05/08 03:24:37;;;;;;;12.53;11.43;;;;;;;12.38;100.00;96973.19;5044294;28;20204;-54
2022/05/08 03:27:06;;;;;;;12.17;11.17;;;;;;;12.35;100.00;96980.59;5044047;28;20219;-53
2022/05/08 03:29:33;;;;;;;12.43;11.13;;;;;;;12.32;100.00;96972.94;5033125;28;20214;-53
2022/05/08 03:32:01;;;;;;;12.30;11.20;;;;;;;12.33;100.00;96982.53;5033626;28;20580;-54
2022/05/08 03:34:28;;;;;;;11.63;10.63;;;;;;;12.29;100.00;96974.03;5044560;28;20211;-52
2022/05/08 03:37:04;;;;;;;12.37;11.17;;;;;;;12.29;100.00;96970.59;5044410;28;20264;-52
2022/05/08 03:39:31;;;;;;;11.13;10.30;;;;;;;12.30;100.00;96972.22;5045540;28;20537;-53
2022/05/08 03:42:00;;;;;;;11.70;10.53;;;;;;;12.29;100.00;96966.09;5043766;28;20195;-53
2022/05/08 03:44:28;;;;;;;11.10;10.20;;;;;;;12.30;100.00;96972.22;5044261;28;20200;-53
2022/05/08 03:46:55;;;;;;;10.87;10.07;;;;;;;12.26;100.00;96970.84;5043340;28;20210;-53
2022/05/08 03:49:21;;;;;;;10.70;9.80;;;;;;;12.25;100.00;96970.03;5043786;28;20206;-53
2022/05/08 03:51:48;;;;;;;11.23;10.33;;;;;;;12.20;100.00;96968.78;5043593;28;20237;-53
2022/05/08 03:54:16;;;;;;;11.07;10.17;;;;;;;12.18;100.00;96968.09;5044361;28;20209;-54
2022/05/08 03:56:42;;;;;;;10.40;9.57;;;;;;;12.10;100.00;96966.19;5043495;28;20200;-53
2022/05/08 03:59:11;;;;;;;11.33;10.33;;;;;;;12.10;100.00;96966.19;5043432;28;20203;-54
2022/05/08 04:01:38;;;;;;;10.67;9.87;;;;;;;12.11;100.00;96967.84;5042749;28;21411;-54
2022/05/08 04:04:05;;;;;;;10.80;9.83;;;;;;;12.05;100.00;96968.41;5042315;28;20504;-52
2022/05/08 04:06:31;;;;;;;11.50;10.50;;;;;;;12.02;100.00;96967.88;5043700;28;20231;-54
2022/05/08 04:08:59;;;;;;;10.53;9.67;;;;;;;12.02;100.00;96967.88;5043490;28;20207;-53
2022/05/08 04:11:30;;;;;;;10.47;9.67;;;;;;;12.05;100.00;96967.56;5043407;28;20219;-53
2022/05/08 04:13:58;;;;;;;10.87;9.97;;;;;;;11.99;100.00;96969.00;5043273;28;20199;-53
2022/05/08 04:16:26;;;;;;;11.10;10.20;;;;;;;12.03;100.00;96966.91;5033882;28;20211;-52
2022/05/08 04:18:53;;;;;;;10.83;10.03;;;;;;;11.98;100.00;96972.63;5044337;28;20265;-52
2022/05/08 04:21:20;;;;;;;10.47;9.67;;;;;;;11.96;100.00;96970.13;5048312;28;20215;-53
2022/05/08 04:26:34;;;;;;;10.07;9.33;;;;;;;12.00;100.00;96981.28;5044826;28;20210;-53
2022/05/08 04:29:03;;;;;;;10.27;9.37;;;;;;;12.03;100.00;96980.16;5042787;28;20852;-54
2022/05/08 04:31:29;;;;;;;10.07;9.27;;;;;;;12.04;100.00;96987.13;5043738;28;20226;-53
2022/05/08 04:33:57;;;;;;;10.60;9.73;;;;;;;12.06;100.00;96990.47;5045467;28;20195;-53
2022/05/08 04:36:24;;;;;;;11.33;10.30;;;;;;;12.08;100.00;96993.81;5047977;28;20199;-53
2022/05/08 04:38:50;;;;;;;9.77;9.00;;;;;;;12.09;100.00;96991.00;5045523;28;20196;-54
2022/05/08 04:41:18;;;;;;;9.77;9.07;;;;;;;12.13;100.00;96992.41;5047076;28;20204;-53
2022/05/08 04:43:45;;;;;;;10.73;9.83;;;;;;;12.18;100.00;96999.94;5046993;28;20203;-53
2022/05/08 04:46:16;;;;;;;11.00;10.03;;;;;;;12.23;100.00;96995.84;5047230;28;20200;-53
2022/05/08 04:48:42;;;;;;;11.33;10.43;;;;;;;12.25;100.00;97003.66;5047363;28;21426;-54
2022/05/08 04:51:09;;;;;;;11.20;10.30;;;;;;;12.33;100.00;96998.47;5045423;28;20258;-53
2022/05/08 04:53:35;;;;;;;11.27;10.27;;;;;;;12.40;100.00;97005.69;5044304;28;20558;-53
2022/05/08 04:56:04;;;;;;;11.57;10.60;;;;;;;12.47;100.00;97001.47;5042538;28;20226;-55
2022/05/08 04:58:33;;;;;;;11.43;10.43;;;;;;;12.54;100.00;97012.34;5042503;28;20538;-53
2022/05/08 05:01:01;;;;;;;11.53;10.53;;;;;;;12.56;100.00;97010.38;5042693;28;20203;-53
2022/05/08 05:03:27;;;;;;;11.87;10.93;;;;;;;12.61;100.00;97013.41;5042918;28;20207;-54
2022/05/08 05:05:56;;;;;;;11.27;10.37;;;;;;;12.66;100.00;97019.13;5042500;28;20572;-53
2022/05/08 05:08:22;;;;;;;11.03;10.03;;;;;;;12.74;100.00;97013.94;5042283;28;20214;-54
2022/05/08 05:10:51;;;;;;;10.87;9.97;;;;;;;12.83;100.00;97018.34;5042570;28;20195;-53
2022/05/08 05:13:18;;;;;;;10.90;10.10;;;;;;;12.95;100.00;97016.34;5042395;28;20257;-53
2022/05/08 05:15:44;;;;;;;10.47;9.67;;;;;;;13.16;100.00;97018.75;5042376;28;20219;-53
2022/05/08 05:18:15;;;;;;;10.80;9.90;;;;;;;13.48;100.00;97021.75;5042493;28;20218;-54
2022/05/08 05:20:41;;;;;;;10.90;10.07;;;;;;;13.78;97.04;97013.34;5042189;28;20199;-53
2022/05/08 05:23:08;;;;;;;10.60;9.80;;;;;;;14.08;92.17;97020.09;5042162;28;20196;-54
2022/05/08 05:25:34;;;;;;;9.97;9.17;;;;;;;14.45;93.04;97020.66;5059051;28;20272;-54
2022/05/08 05:28:01;;;;;;;9.83;9.03;;;;;;;14.76;90.77;97017.50;5069249;28;20209;-53
2022/05/08 05:30:29;;;;;;;9.57;8.83;;;;;;;14.90;87.37;97025.75;5066724;28;20200;-53
2022/05/08 05:32:57;;;;;;;8.60;8.00;;;;;;;14.89;85.13;97023.22;5063600;28;20222;-53
2022/05/08 05:35:27;;;;;;;8.47;7.87;;;;;;;14.93;84.94;97020.09;5056862;28;20202;-54
2022/05/08 05:37:55;;;;;;;8.53;7.77;;;;;;;15.15;86.81;97020.50;5054532;28;20227;-54
2022/05/08 05:40:22;;;;;;;7.97;7.37;;;;;;;15.32;84.10;97027.53;5054909;28;20195;-53
2022/05/08 05:42:48;;;;;;;8.53;7.83;;;;;;;15.57;84.03;97020.44;5060317;28;20199;-54
2022/05/08 05:45:15;;;;;;;8.07;7.47;;;;;;;15.87;83.11;97022.47;5057836;28;20195;-55
2022/05/08 05:47:50;;;;;;;7.93;7.33;;;;;;;15.58;81.94;97030.13;5045540;28;20212;-53
2022/05/08 05:50:17;;;;;;;7.13;6.63;;;;;;;15.52;82.57;97031.59;5056481;28;21119;-53
2022/05/08 05:52:46;;;;;;;6.90;6.40;;;;;;;15.05;82.95;97039.28;5062874;28;20254;-54
2022/05/08 05:55:12;;;;;;;7.50;7.00;;;;;;;14.91;84.40;97035.38;5056616;28;20203;-54
2022/05/08 05:57:39;;;;;;;8.03;7.30;;;;;;;14.77;84.53;97046.63;5048468;28;20202;-55
2022/05/08 06:00:10;;;;;;;7.87;7.27;;;;;;;14.88;88.07;97040.19;5060162;28;20195;-54
2022/05/08 06:02:40;;;;;;;8.00;7.30;;;;;;;14.64;86.06;97040.06;5055215;28;20199;-54
2022/05/08 06:05:07;;;;;;;7.40;6.80;;;;;;;14.51;88.62;97048.50;5051348;28;20196;-53
2022/05/08 06:07:34;;;;;;;7.50;6.90;;;;;;;14.34;88.13;97049.41;5042086;28;20227;-54
2022/05/08 06:10:04;;;;;;;7.90;7.20;;;;;;;14.47;88.85;97051.63;5040858;28;20215;-54
2022/05/08 06:12:31;;;;;;;8.23;7.53;;;;;;;14.46;87.79;97050.78;5041351;28;20248;-52
2022/05/08 06:14:58;;;;;;;9.40;8.70;;;;;;;14.42;90.28;97044.94;5041322;28;20219;-55
2022/05/08 06:17:24;;;;;;;8.20;7.60;;;;;;;14.53;89.27;97056.31;5041163;28;20207;-53
2022/05/08 06:19:51;;;;;;;9.03;8.20;;;;;;;14.39;88.47;97050.59;5041450;28;20196;-53
2022/05/08 06:22:19;;;;;;;8.80;8.10;;;;;;;14.48;88.80;97056.81;5041135;28;20231;-52
2022/05/08 06:24:45;;;;;;;9.03;8.33;;;;;;;14.30;88.57;97050.66;5041012;28;20208;-53
2022/05/08 06:27:13;;;;;;;8.47;7.87;;;;;;;14.34;88.70;97054.72;5041113;28;20202;-53
2022/05/08 06:29:40;;;;;;;8.60;7.90;;;;;;;14.37;89.61;97054.41;5038235;28;20538;-52
2022/05/08 06:32:07;;;;;;;8.83;8.13;;;;;;;14.35;90.59;97057.19;5040981;28;20227;-52
2022/05/08 06:34:34;;;;;;;9.53;8.73;;;;;;;14.40;89.53;97054.09;5041310;28;20212;-53
2022/05/08 06:37:00;;;;;;;9.33;8.53;;;;;;;14.39;89.57;97057.72;5041227;28;20964;-54
2022/05/08 06:39:29;;;;;;;8.87;8.17;;;;;;;14.31;89.53;97057.66;5041015;28;20211;-53
2022/05/08 06:41:55;;;;;;;8.57;7.90;;;;;;;14.38;90.09;97056.06;5041613;28;20204;-54
2022/05/08 06:44:23;;;;;;;8.93;8.30;;;;;;;14.39;89.36;97047.06;5040704;28;20199;-53
2022/05/08 06:46:50;;;;;;;8.20;7.50;;;;;;;14.42;89.77;97057.41;5040911;28;20220;-53
2022/05/08 06:49:18;;;;;;;8.63;7.93;;;;;;;14.28;89.77;97060.59;5040812;28;20218;-54
2022/05/08 06:51:46;;;;;;;7.60;7.00;;;;;;;14.39;89.67;97057.72;5041427;28;20246;-53
2022/05/08 06:54:13;;;;;;;9.43;8.50;;;;;;;14.47;89.79;97048.97;5040626;28;20658;-53
2022/05/08 06:56:41;;;;;;;8.00;7.47;;;;;;;14.55;90.27;97054.34;5041420;28;20578;-53
2022/05/08 07:01:53;;;;;;;7.77;7.27;;;;;;;14.70;89.62;97053.56;5040496;28;20743;-52
2022/05/08 07:04:20;;;;;;;7.63;7.13;;;;;;;14.72;88.18;97053.44;5041066;28;20211;-53
2022/05/08 07:06:47;;;;;;;8.77;8.07;;;;;;;14.73;87.56;97052.44;5040756;28;20243;-53
2022/05/08 07:09:15;;;;;;;8.00;7.17;;;;;;;14.67;87.40;97051.25;5040608;28;20204;-53
2022/05/08 07:11:45;;;;;;;8.37;7.67;;;;;;;14.60;86.39;97044.03;5040874;28;20224;-52
2022/05/08 07:14:12;;;;;;;8.10;7.33;;;;;;;14.65;86.27;97045.25;5040628;28;20208;-53
2022/05/08 07:16:39;;;;;;;7.27;6.77;;;;;;;14.82;87.28;97046.16;5043216;28;20218;-52
2022/05/08 07:19:10;;;;;;;7.67;7.13;;;;;;;14.76;87.09;97046.81;5044039;28;20223;-56
2022/05/08 07:21:36;;;;;;;7.80;7.20;;;;;;;14.89;87.13;97050.69;5044663;28;20211;-58
2022/05/08 07:24:06;;;;;;;8.27;7.47;;;;;;;14.94;86.87;97043.06;5045922;28;20293;-60
2022/05/08 07:26:33;;;;;;;8.20;7.60;;;;;;;14.77;87.88;97041.31;5043101;28;20593;-59
2022/05/08 07:29:15;;;;;;;7.87;7.27;;;;;;;14.86;87.58;97047.50;5043746;28;20208;-60
2022/05/08 07:31:42;;;;;;;7.90;7.20;;;;;;;14.77;86.42;97051.94;5044583;28;20555;-58
2022/05/08 07:36:56;;;;;;;7.60;7.10;;;;;;;14.80;87.88;97054.31;5044605;28;20288;-60
2022/05/08 07:39:24;;;;;;;8.00;7.40;;;;;;;14.77;87.27;97062.59;5044981;28;20207;-61
2022/05/08 07:41:51;;;;;;;7.40;6.90;;;;;;;14.87;88.52;97057.19;5044842;28;20590;-59
2022/05/08 07:44:17;;;;;;;7.63;7.03;;;;;;;14.98;87.83;97061.38;5044147;28;20219;-54
2022/05/08 07:46:46;;;;;;;7.40;6.80;;;;;;;14.91;87.81;97059.34;5044685;28;20273;-54
2022/05/08 07:49:16;;;;;;;7.37;6.83;;;;;;;14.78;86.01;97061.63;5045037;28;20525;-53
2022/05/08 07:51:43;;;;;;;7.43;6.73;;;;;;;14.91;86.79;97069.19;5053680;28;20214;-54
2022/05/08 07:54:10;;;;;;;8.20;7.53;;;;;;;14.83;85.94;97066.47;5062391;28;20182;-53
2022/05/08 07:56:37;;;;;;;8.00;7.40;;;;;;;14.70;85.32;97068.75;5067098;28;20219;-52
2022/05/08 07:59:05;;;;;;;7.20;6.70;;;;;;;14.77;85.65;97067.94;5062888;28;20218;-54
2022/05/08 08:01:34;;;;;;;7.53;6.97;;;;;;;14.77;85.90;97073.25;5045656;28;20215;-54
2022/05/08 08:04:04;;;;;;;7.50;6.47;;;;;;;14.77;85.79;97067.94;5043381;28;20613;-53
2022/05/08 08:06:36;;;;;;;7.37;6.87;;;;;;;14.82;86.44;97073.63;5052024;28;20243;-55
2022/05/08 08:09:06;;;;;;;6.87;6.37;;;;;;;14.87;87.34;97074.00;5049805;28;20214;-54
2022/05/08 08:11:32;;;;;;;7.57;7.07;;;;;;;14.92;86.53;97070.84;5051317;28;20271;-54
2022/05/08 08:13:59;;;;;;;6.77;6.37;;;;;;;15.10;86.58;97068.06;5043176;28;20230;-54
2022/05/08 08:16:26;;;;;;;7.73;7.13;;;;;;;15.22;86.98;97072.97;5043463;28;20234;-54
2022/05/08 08:18:56;;;;;;;7.20;6.70;;;;;;;15.34;86.14;97076.16;5032878;28;20698;-54
2022/05/08 08:21:23;;;;;;;8.10;7.53;;;;;;;15.38;84.82;97070.34;5042552;28;20191;-54
2022/05/08 08:23:54;;;;;;;7.90;7.20;;;;;;;15.30;83.57;97072.97;5042867;28;20192;-54
2022/05/08 08:26:21;;;;;;;8.60;7.90;;;;;;;15.33;83.49;97082.50;5041845;28;20210;-54
2022/05/08 08:28:49;;;;;;;8.37;7.77;;;;;;;15.37;83.67;97076.66;5041334;28;20606;-53
2022/05/08 08:31:17;;;;;;;8.23;7.63;;;;;;;15.26;83.46;97084.97;5042773;28;20199;-53
2022/05/08 08:33:44;;;;;;;8.40;7.80;;;;;;;15.29;84.85;97087.31;5042165;28;20592;-54
2022/05/08 08:36:12;;;;;;;8.07;7.47;;;;;;;15.40;84.07;97086.19;5043479;28;20671;-54
2022/05/08 08:38:39;;;;;;;7.47;6.90;;;;;;;15.53;85.52;97081.25;5043032;28;20214;-53
2022/05/08 08:41:08;;;;;;;8.00;7.40;;;;;;;15.53;83.08;97080.41;5042623;28;20204;-55
2022/05/08 08:49:04;;;;;;;7.50;7.00;;;;;;;15.55;82.07;97076.59;5042817;28;20238;-53
2022/05/08 08:51:31;;;;;;;7.63;7.03;;;;;;;15.51;82.38;97064.59;5049658;28;20199;-53
2022/05/08 08:53:59;;;;;;;8.50;7.90;;;;;;;15.32;82.34;97067.50;5065446;28;20318;-54
2022/05/08 08:56:28;;;;;;;8.23;7.53;;;;;;;15.24;83.03;97072.78;5065527;28;20199;-53
2022/05/08 08:58:54;;;;;;;7.87;7.17;;;;;;;15.15;84.17;97076.44;5064057;28;20215;-53
2022/05/08 09:01:21;;;;;;;8.17;7.47;;;;;;;15.14;84.27;97072.09;5063936;28;20191;-53
2022/05/08 09:03:48;;;;;;;8.00;7.40;;;;;;;15.13;86.70;97075.75;5063978;28;20228;-53
2022/05/08 09:06:14;;;;;;;8.43;7.83;;;;;;;15.13;85.52;97070.41;5065067;28;20222;-53
2022/05/08 09:08:41;;;;;;;8.03;7.43;;;;;;;15.16;86.00;97073.59;5063916;28;20190;-53
2022/05/08 09:11:07;;;;;;;8.20;7.60;;;;;;;15.18;85.94;97082.28;5063608;28;20199;-53
2022/05/08 09:13:49;;;;;;;8.17;7.47;;;;;;;15.10;84.47;97078.72;5062040;28;20246;-54
2022/05/08 09:16:16;;;;;;;9.00;8.30;;;;;;;15.16;84.03;97084.25;5069517;28;20171;-53
2022/05/08 09:18:46;;;;;;;8.13;7.53;;;;;;;15.21;83.88;97078.44;5064228;28;20199;-53
2022/05/08 09:24:11;;;;;;;7.63;7.07;;;;;;;15.44;83.98;97085.69;5064302;28;20186;-53
2022/05/08 09:26:38;;;;;;;7.60;7.07;;;;;;;15.56;82.35;97082.75;5069161;28;20205;-53
2022/05/08 09:29:07;;;;;;;6.70;6.28;;;;;;;15.52;82.24;97073.44;5066434;28;20195;-52
2022/05/08 09:31:40;;;;;;;7.57;7.00;;;;;;;15.56;82.84;97077.41;5061014;28;20217;-53
2022/05/08 09:34:07;;;;;;;7.00;6.40;;;;;;;15.55;81.47;97075.75;5057191;28;20220;-53
2022/05/08 09:36:35;;;;;;;6.83;6.23;;;;;;;15.55;81.50;97076.59;5066731;28;20178;-53
2022/05/08 09:39:02;;;;;;;6.50;6.00;;;;;;;15.68;82.37;97066.28;5063883;28;20210;-53
2022/05/08 09:41:30;;;;;;;6.40;6.00;;;;;;;15.68;82.19;97071.63;5063508;28;20281;-53
2022/05/08 09:44:10;;;;;;;6.57;6.10;;;;;;;15.72;81.58;97072.13;5043290;28;20204;-52
2022/05/08 09:46:37;;;;;;;6.43;6.03;;;;;;;15.66;81.76;97073.59;5042289;28;20872;-52
2022/05/08 09:49:04;;;;;;;6.30;5.90;;;;;;;15.74;81.62;97075.44;5030602;28;20196;-51
2022/05/08 09:51:32;;;;;;;6.20;5.70;;;;;;;15.83;81.52;97070.00;5043236;28;20206;-54
2022/05/08 09:53:58;;;;;;;6.53;6.13;;;;;;;16.04;80.99;97080.16;5041979;28;20215;-52
2022/05/08 09:56:32;;;;;;;6.05;5.65;;;;;;;16.29;77.67;97067.66;5040726;28;20207;-52
2022/05/08 09:59:01;;;;;;;5.97;5.57;;;;;;;16.41;79.14;97066.28;5041243;28;20199;-53
2022/05/08 10:01:29;;;;;;;5.35;5.05;;;;;;;16.30;77.63;97066.63;5042279;28;20204;-52
2022/05/08 10:03:56;;;;;;;5.53;5.13;;;;;;;16.49;77.39;97063.63;5044435;28;20621;-52
2022/05/08 10:06:24;;;;;;;5.68;5.28;;;;;;;16.74;74.40;97064.44;5053312;28;20256;-55
2022/05/08 10:08:50;;;;;;;5.57;5.18;;;;;;;16.92;75.11;97059.69;5044091;28;20646;-51
2022/05/08 10:14:07;;;;;;;5.88;5.38;;;;;;;17.29;73.43;97057.19;5041135;28;20234;-52
2022/05/08 10:16:52;;;;;;;5.00;4.70;;;;;;;17.48;72.33;97061.28;5060151;28;20186;-52
2022/05/08 10:19:57;;;;;;;8.20;5.55;;;;;;;17.51;74.90;97060.09;5064338;28;20191;-53
2022/05/08 10:22:25;;;;;;;5.88;5.47;;;;;;;17.41;71.74;97058.47;5064242;28;20188;-53
2022/05/08 10:24:55;;;;;;;5.43;5.10;;;;;;;17.52;71.97;97057.25;5059833;28;20221;-54
2022/05/08 10:27:27;;;;;;;4.82;4.53;;;;;;;17.60;72.42;97051.91;5048227;28;20211;-54
2022/05/08 10:30:33;;;;;;;4.63;4.22;;;;;;;17.58;71.17;97055.72;5050771;28;20200;-51
2022/05/08 10:33:04;;;;;;;5.05;4.65;;;;;;;17.52;71.04;97054.56;5051741;28;20272;-51
2022/05/08 10:35:31;;;;;;;4.60;4.30;;;;;;;17.36;70.83;97057.31;5041489;28;20223;-53
2022/05/08 10:38:21;;;;;;;4.78;4.35;;;;;;;17.36;71.78;97055.47;5054324;28;20207;-53
2022/05/08 10:40:47;;;;;;;4.40;4.10;;;;;;;17.24;70.29;97064.09;5051567;28;20582;-54
2022/05/08 10:43:32;;;;;;;4.50;4.30;;;;;;;17.14;70.97;97063.47;5044744;28;20195;-53
2022/05/08 10:46:21;;;;;;;4.72;4.50;;;;;;;17.13;72.01;97062.63;5041717;28;20198;-52
2022/05/08 10:48:49;;;;;;;4.85;4.55;;;;;;;17.09;72.79;97061.31;5040182;28;20496;-52
2022/05/08 10:51:16;;;;;;;4.47;4.18;;;;;;;16.98;73.18;97063.50;5043286;28;20627;-54
2022/05/08 10:53:42;;;;;;;6.93;5.38;;;;;;;16.92;74.58;97057.88;5044574;28;20223;-53
2022/05/08 10:56:10;;;;;;;5.40;5.00;;;;;;;16.75;74.57;97052.75;5044885;28;20215;-53
2022/05/08 10:58:41;;;;;;;5.07;4.68;;;;;;;16.82;73.91;97059.06;5044199;28;20203;-54
2022/05/08 11:01:09;;;;;;;5.63;5.25;;;;;;;16.69;74.74;97058.75;5044317;28;20207;-54
2022/05/08 11:03:36;;;;;;;6.20;5.65;;;;;;;16.76;74.89;97060.56;5045387;28;20254;-52
2022/05/08 11:06:07;;;;;;;5.65;5.25;;;;;;;16.79;75.90;97054.88;5044375;28;20235;-56
2022/05/08 11:08:34;;;;;;;6.03;5.63;;;;;;;16.79;74.61;97052.22;5045087;28;20196;-54
2022/05/08 11:11:10;;;;;;;6.10;5.70;;;;;;;16.82;73.76;97051.06;5044070;28;20203;-54
2022/05/08 11:13:42;;;;;;;5.40;5.10;;;;;;;16.91;74.18;97050.84;5044287;28;20218;-53
2022/05/08 11:16:09;;;;;;;5.75;5.35;;;;;;;17.05;73.22;97053.78;5033906;28;20596;-53
2022/05/08 11:18:35;;;;;;;5.60;5.30;;;;;;;17.42;72.98;97051.28;5044164;28;20513;-52
2022/05/08 11:21:05;;;;;;;6.10;5.70;;;;;;;17.70;72.24;97048.97;5045427;28;20203;-52
2022/05/08 11:23:35;;;;;;;5.22;4.93;;;;;;;17.90;71.26;97042.13;5045156;28;20231;-52
2022/05/08 11:26:03;;;;;;;5.15;4.75;;;;;;;18.37;72.07;97049.94;5043857;28;20517;-53
2022/05/08 11:28:31;;;;;;;5.03;4.72;;;;;;;18.60;70.90;97053.44;5043147;28;20200;-54
2022/05/08 11:30:59;;;;;;;5.10;4.80;;;;;;;18.75;68.70;97056.97;5043378;28;20218;-53
2022/05/08 11:36:23;;;;;;;5.38;5.07;;;;;;;18.67;67.93;97051.69;5044451;28;20215;-55
2022/05/08 11:38:55;;;;;;;5.40;5.00;;;;;;;18.68;68.22;97050.66;5044236;28;20203;-53
2022/05/08 11:41:24;;;;;;;4.80;4.50;;;;;;;18.57;65.75;97051.13;5044499;28;20196;-55
2022/05/08 11:43:52;;;;;;;5.22;4.78;;;;;;;18.52;66.83;97050.00;5043449;28;20195;-54
2022/05/08 11:46:20;;;;;;;5.25;4.85;;;;;;;18.24;66.30;97047.06;5044366;28;20207;-55
2022/05/08 11:48:49;;;;;;;4.55;4.25;;;;;;;18.52;68.22;97050.84;5044030;28;20235;-52
2022/05/08 11:51:19;;;;;;;4.90;4.60;;;;;;;18.48;65.63;97046.84;5043998;28;20208;-55
2022/05/08 11:53:50;;;;;;;5.03;4.68;;;;;;;18.72;65.65;97045.78;5044019;28;20222;-52
2022/05/08 11:56:28;;;;;;;4.03;3.83;;;;;;;19.22;66.16;97042.34;5043627;28;20254;-54